Terminal Aerodrome Forecast
Issued by NWS Charleston, WV

Home | Current Version | Previous Version | Text Only | Print | Product List | Glossary On
Versions: 1 2 3 4 5 6 7 8 9 10 11 12 13 14 15 16 17 18 19 20 21 22
000
FTUS41 KRLX 121735
TAFBKW
TAF
KBKW 121735Z 1218/1318 30015G26KT 1 1/2SM -SN OVC015
      TEMPO 1218/1221 1/2SM SN BKN008
     FM122100 32014G24KT 4SM -SN OVC020
      TEMPO 1221/1223 1SM -SHSN OVC008
     FM122300 31014G24KT 5SM -SN OVC020
      TEMPO 1223/1302 2SM -SHSN OVC012
     FM130200 30013G22KT 5SM -SN BKN025
     FM130400 31013G22KT P6SM OVC020
     FM130700 30012G20KT P6SM BKN020
     FM130900 30011G19KT P6SM SCT250=

USA.gov is the U.S. government's official web portal to all federal, state and local government web resources and services.